sensor_id;sensor_type;location;lat;lon;timestamp;P1;durP1;ratioP1;P2;durP2;ratioP2
46036;SDS011;31769;49.304;8.428;2023-09-08T00:01:02;7.25;;;5.25;;
46036;SDS011;31769;49.304;8.428;2023-09-08T00:04:03;5.43;;;4.90;;
46036;SDS011;31769;49.304;8.428;2023-09-08T00:07:04;8.02;;;5.20;;
46036;SDS011;31769;49.304;8.428;2023-09-08T00:10:05;5.90;;;5.30;;
46036;SDS011;31769;49.304;8.428;2023-09-08T00:13:07;5.38;;;4.95;;
46036;SDS011;31769;49.304;8.428;2023-09-08T00:16:07;8.88;;;5.40;;
46036;SDS011;31769;49.304;8.428;2023-09-08T00:19:10;8.23;;;5.50;;
46036;SDS011;31769;49.304;8.428;2023-09-08T00:22:11;5.85;;;5.25;;
46036;SDS011;31769;49.304;8.428;2023-09-08T00:25:12;7.72;;;5.80;;
46036;SDS011;31769;49.304;8.428;2023-09-08T00:28:13;6.43;;;5.35;;
46036;SDS011;31769;49.304;8.428;2023-09-08T00:31:14;6.47;;;5.13;;
46036;SDS011;31769;49.304;8.428;2023-09-08T00:34:14;5.85;;;5.35;;
46036;SDS011;31769;49.304;8.428;2023-09-08T00:37:15;6.38;;;5.28;;
46036;SDS011;31769;49.304;8.428;2023-09-08T00:40:15;5.88;;;5.28;;
46036;SDS011;31769;49.304;8.428;2023-09-08T00:43:16;6.15;;;5.53;;
46036;SDS011;31769;49.304;8.428;2023-09-08T00:46:17;5.75;;;5.25;;
46036;SDS011;31769;49.304;8.428;2023-09-08T00:49:18;8.73;;;5.32;;
46036;SDS011;31769;49.304;8.428;2023-09-08T00:52:20;6.47;;;5.15;;
46036;SDS011;31769;49.304;8.428;2023-09-08T00:55:20;5.72;;;5.18;;
46036;SDS011;31769;49.304;8.428;2023-09-08T00:58:21;7.13;;;5.47;;
46036;SDS011;31769;49.304;8.428;2023-09-08T01:01:22;5.88;;;5.25;;
46036;SDS011;31769;49.304;8.428;2023-09-08T01:04:23;11.07;;;5.68;;
46036;SDS011;31769;49.304;8.428;2023-09-08T01:07:26;7.15;;;5.45;;
46036;SDS011;31769;49.304;8.428;2023-09-08T01:10:31;8.15;;;5.10;;
46036;SDS011;31769;49.304;8.428;2023-09-08T01:13:34;6.88;;;5.68;;
46036;SDS011;31769;49.304;8.428;2023-09-08T01:16:35;9.30;;;5.72;;
46036;SDS011;31769;49.304;8.428;2023-09-08T01:19:37;6.50;;;5.90;;
46036;SDS011;31769;49.304;8.428;2023-09-08T01:22:43;6.50;;;5.18;;
46036;SDS011;31769;49.304;8.428;2023-09-08T01:26:16;8.20;;;6.00;;
46036;SDS011;31769;49.304;8.428;2023-09-08T01:29:19;5.70;;;4.90;;
46036;SDS011;31769;49.304;8.428;2023-09-08T01:32:24;7.30;;;5.60;;
46036;SDS011;31769;49.304;8.428;2023-09-08T01:35:26;6.50;;;5.40;;
46036;SDS011;31769;49.304;8.428;2023-09-08T01:38:27;7.80;;;6.10;;
46036;SDS011;31769;49.304;8.428;2023-09-08T01:41:28;6.72;;;5.93;;
46036;SDS011;31769;49.304;8.428;2023-09-08T01:44:30;6.20;;;5.63;;
46036;SDS011;31769;49.304;8.428;2023-09-08T01:47:31;8.50;;;5.68;;
46036;SDS011;31769;49.304;8.428;2023-09-08T01:50:31;9.52;;;6.13;;
46036;SDS011;31769;49.304;8.428;2023-09-08T01:53:32;5.97;;;5.32;;
46036;SDS011;31769;49.304;8.428;2023-09-08T01:56:32;6.60;;;5.97;;
46036;SDS011;31769;49.304;8.428;2023-09-08T01:59:33;8.05;;;6.10;;
46036;SDS011;31769;49.304;8.428;2023-09-08T02:02:34;7.65;;;5.60;;
46036;SDS011;31769;49.304;8.428;2023-09-08T02:05:34;6.80;;;5.80;;
46036;SDS011;31769;49.304;8.428;2023-09-08T02:08:38;6.07;;;5.25;;
46036;SDS011;31769;49.304;8.428;2023-09-08T02:11:40;6.50;;;5.80;;
46036;SDS011;31769;49.304;8.428;2023-09-08T02:14:42;6.05;;;5.45;;
46036;SDS011;31769;49.304;8.428;2023-09-08T02:17:43;8.82;;;5.65;;
46036;SDS011;31769;49.304;8.428;2023-09-08T02:20:43;7.15;;;6.00;;
46036;SDS011;31769;49.304;8.428;2023-09-08T02:23:44;6.03;;;5.50;;
46036;SDS011;31769;49.304;8.428;2023-09-08T02:26:44;8.13;;;5.97;;
46036;SDS011;31769;49.304;8.428;2023-09-08T02:29:46;7.07;;;5.82;;
46036;SDS011;31769;49.304;8.428;2023-09-08T02:32:46;6.32;;;5.65;;
46036;SDS011;31769;49.304;8.428;2023-09-08T02:35:48;6.18;;;5.57;;
46036;SDS011;31769;49.304;8.428;2023-09-08T02:38:49;7.85;;;6.05;;
46036;SDS011;31769;49.304;8.428;2023-09-08T02:41:50;6.00;;;5.50;;
46036;SDS011;31769;49.304;8.428;2023-09-08T02:44:51;6.57;;;5.80;;
46036;SDS011;31769;49.304;8.428;2023-09-08T02:47:53;6.60;;;6.00;;
46036;SDS011;31769;49.304;8.428;2023-09-08T02:50:54;6.38;;;5.82;;
46036;SDS011;31769;49.304;8.428;2023-09-08T02:54:04;6.22;;;5.63;;
46036;SDS011;31769;49.304;8.428;2023-09-08T02:57:05;6.40;;;5.80;;
46036;SDS011;31769;49.304;8.428;2023-09-08T03:00:06;8.45;;;6.20;;
46036;SDS011;31769;49.304;8.428;2023-09-08T03:03:08;7.28;;;6.55;;
46036;SDS011;31769;49.304;8.428;2023-09-08T03:06:09;6.72;;;6.05;;
46036;SDS011;31769;49.304;8.428;2023-09-08T03:09:13;6.97;;;6.13;;
46036;SDS011;31769;49.304;8.428;2023-09-08T03:12:13;7.47;;;6.20;;
46036;SDS011;31769;49.304;8.428;2023-09-08T03:15:14;7.45;;;5.78;;
46036;SDS011;31769;49.304;8.428;2023-09-08T03:18:15;9.32;;;6.28;;
46036;SDS011;31769;49.304;8.428;2023-09-08T03:21:15;7.15;;;6.45;;
46036;SDS011;31769;49.304;8.428;2023-09-08T03:24:17;7.70;;;6.13;;
46036;SDS011;31769;49.304;8.428;2023-09-08T03:27:18;6.65;;;5.82;;
46036;SDS011;31769;49.304;8.428;2023-09-08T03:30:19;10.05;;;6.55;;
46036;SDS011;31769;49.304;8.428;2023-09-08T03:33:19;11.57;;;6.72;;
46036;SDS011;31769;49.304;8.428;2023-09-08T03:36:20;10.00;;;7.03;;
46036;SDS011;31769;49.304;8.428;2023-09-08T03:39:21;8.38;;;6.65;;
46036;SDS011;31769;49.304;8.428;2023-09-08T03:42:22;6.90;;;6.18;;
46036;SDS011;31769;49.304;8.428;2023-09-08T03:45:22;8.45;;;6.43;;
46036;SDS011;31769;49.304;8.428;2023-09-08T03:48:23;8.38;;;7.07;;
46036;SDS011;31769;49.304;8.428;2023-09-08T03:51:24;7.88;;;7.13;;
46036;SDS011;31769;49.304;8.428;2023-09-08T03:54:24;12.52;;;9.30;;
46036;SDS011;31769;49.304;8.428;2023-09-08T03:57:25;12.75;;;9.88;;
46036;SDS011;31769;49.304;8.428;2023-09-08T04:00:25;12.23;;;8.65;;
46036;SDS011;31769;49.304;8.428;2023-09-08T04:03:26;10.52;;;9.43;;
46036;SDS011;31769;49.304;8.428;2023-09-08T04:06:27;13.30;;;8.95;;
46036;SDS011;31769;49.304;8.428;2023-09-08T04:09:28;11.27;;;8.60;;
46036;SDS011;31769;49.304;8.428;2023-09-08T04:12:29;9.45;;;8.43;;
46036;SDS011;31769;49.304;8.428;2023-09-08T04:15:30;9.60;;;8.63;;
46036;SDS011;31769;49.304;8.428;2023-09-08T04:18:31;9.40;;;7.53;;
46036;SDS011;31769;49.304;8.428;2023-09-08T04:21:31;8.70;;;7.90;;
46036;SDS011;31769;49.304;8.428;2023-09-08T04:24:35;8.77;;;7.97;;
46036;SDS011;31769;49.304;8.428;2023-09-08T04:27:36;8.70;;;7.57;;
46036;SDS011;31769;49.304;8.428;2023-09-08T04:30:37;9.95;;;8.18;;
46036;SDS011;31769;49.304;8.428;2023-09-08T04:33:38;10.32;;;8.38;;
46036;SDS011;31769;49.304;8.428;2023-09-08T04:36:39;10.18;;;7.82;;
46036;SDS011;31769;49.304;8.428;2023-09-08T04:39:39;15.63;;;13.98;;
46036;SDS011;31769;49.304;8.428;2023-09-08T04:42:41;9.75;;;8.80;;
46036;SDS011;31769;49.304;8.428;2023-09-08T04:45:42;10.55;;;8.68;;
46036;SDS011;31769;49.304;8.428;2023-09-08T04:48:43;9.50;;;8.50;;
46036;SDS011;31769;49.304;8.428;2023-09-08T04:51:44;12.55;;;9.00;;
46036;SDS011;31769;49.304;8.428;2023-09-08T04:54:53;9.68;;;8.55;;
46036;SDS011;31769;49.304;8.428;2023-09-08T04:57:54;9.80;;;8.05;;
46036;SDS011;31769;49.304;8.428;2023-09-08T05:00:54;8.82;;;7.95;;
46036;SDS011;31769;49.304;8.428;2023-09-08T05:03:56;10.15;;;8.93;;
46036;SDS011;31769;49.304;8.428;2023-09-08T05:06:56;11.70;;;10.48;;
46036;SDS011;31769;49.304;8.428;2023-09-08T05:09:57;14.60;;;13.05;;
46036;SDS011;31769;49.304;8.428;2023-09-08T05:13:00;12.55;;;9.63;;
46036;SDS011;31769;49.304;8.428;2023-09-08T05:16:01;10.10;;;9.10;;
46036;SDS011;31769;49.304;8.428;2023-09-08T05:19:11;11.38;;;9.77;;
46036;SDS011;31769;49.304;8.428;2023-09-08T05:22:13;11.00;;;9.00;;
46036;SDS011;31769;49.304;8.428;2023-09-08T05:25:14;14.32;;;9.60;;
46036;SDS011;31769;49.304;8.428;2023-09-08T05:28:15;10.30;;;9.38;;
46036;SDS011;31769;49.304;8.428;2023-09-08T05:31:16;12.75;;;9.85;;
46036;SDS011;31769;49.304;8.428;2023-09-08T05:34:16;10.80;;;9.65;;
46036;SDS011;31769;49.304;8.428;2023-09-08T05:37:18;14.98;;;10.02;;
46036;SDS011;31769;49.304;8.428;2023-09-08T05:40:19;15.90;;;11.55;;
46036;SDS011;31769;49.304;8.428;2023-09-08T05:43:23;11.63;;;10.43;;
46036;SDS011;31769;49.304;8.428;2023-09-08T05:46:25;12.65;;;9.90;;
46036;SDS011;31769;49.304;8.428;2023-09-08T05:49:26;11.57;;;10.25;;
46036;SDS011;31769;49.304;8.428;2023-09-08T05:52:27;13.63;;;10.35;;
46036;SDS011;31769;49.304;8.428;2023-09-08T05:55:29;13.43;;;10.55;;
46036;SDS011;31769;49.304;8.428;2023-09-08T05:58:30;11.93;;;9.70;;
46036;SDS011;31769;49.304;8.428;2023-09-08T06:01:31;11.52;;;10.43;;
46036;SDS011;31769;49.304;8.428;2023-09-08T06:04:34;16.83;;;10.23;;
46036;SDS011;31769;49.304;8.428;2023-09-08T06:07:35;15.98;;;10.98;;
46036;SDS011;31769;49.304;8.428;2023-09-08T06:10:37;14.40;;;10.73;;
46036;SDS011;31769;49.304;8.428;2023-09-08T06:13:39;15.63;;;11.55;;
46036;SDS011;31769;49.304;8.428;2023-09-08T06:16:40;17.30;;;12.30;;
46036;SDS011;31769;49.304;8.428;2023-09-08T06:19:42;17.70;;;12.43;;
46036;SDS011;31769;49.304;8.428;2023-09-08T06:22:43;18.55;;;13.75;;
46036;SDS011;31769;49.304;8.428;2023-09-08T06:25:44;19.85;;;12.38;;
46036;SDS011;31769;49.304;8.428;2023-09-08T06:28:46;15.30;;;12.38;;
46036;SDS011;31769;49.304;8.428;2023-09-08T06:31:47;14.60;;;12.10;;
46036;SDS011;31769;49.304;8.428;2023-09-08T06:34:47;16.50;;;11.75;;
46036;SDS011;31769;49.304;8.428;2023-09-08T06:37:48;16.70;;;12.23;;
46036;SDS011;31769;49.304;8.428;2023-09-08T06:40:50;17.38;;;12.63;;
46036;SDS011;31769;49.304;8.428;2023-09-08T06:43:53;14.25;;;11.77;;
46036;SDS011;31769;49.304;8.428;2023-09-08T06:46:56;17.75;;;13.80;;
46036;SDS011;31769;49.304;8.428;2023-09-08T06:49:58;13.80;;;12.25;;
46036;SDS011;31769;49.304;8.428;2023-09-08T06:52:59;36.70;;;29.20;;
46036;SDS011;31769;49.304;8.428;2023-09-08T06:56:00;37.65;;;27.65;;
46036;SDS011;31769;49.304;8.428;2023-09-08T06:59:02;31.70;;;25.83;;
46036;SDS011;31769;49.304;8.428;2023-09-08T07:02:03;18.48;;;16.45;;
46036;SDS011;31769;49.304;8.428;2023-09-08T07:05:05;22.58;;;13.93;;
46036;SDS011;31769;49.304;8.428;2023-09-08T07:08:08;25.27;;;15.57;;
46036;SDS011;31769;49.304;8.428;2023-09-08T07:11:09;18.08;;;15.75;;
46036;SDS011;31769;49.304;8.428;2023-09-08T07:14:10;16.38;;;13.63;;
46036;SDS011;31769;49.304;8.428;2023-09-08T07:17:11;15.95;;;14.25;;
46036;SDS011;31769;49.304;8.428;2023-09-08T07:20:12;20.20;;;17.40;;
46036;SDS011;31769;49.304;8.428;2023-09-08T07:23:13;15.70;;;14.00;;
46036;SDS011;31769;49.304;8.428;2023-09-08T07:26:14;15.70;;;12.70;;
46036;SDS011;31769;49.304;8.428;2023-09-08T07:31:13;13.45;;;10.73;;
46036;SDS011;31769;49.304;8.428;2023-09-08T07:34:17;10.43;;;9.23;;
46036;SDS011;31769;49.304;8.428;2023-09-08T07:37:18;15.80;;;9.60;;
46036;SDS011;31769;49.304;8.428;2023-09-08T07:40:18;13.88;;;8.98;;
46036;SDS011;31769;49.304;8.428;2023-09-08T07:43:20;7.65;;;6.93;;
46036;SDS011;31769;49.304;8.428;2023-09-08T07:46:21;11.55;;;7.07;;
46036;SDS011;31769;49.304;8.428;2023-09-08T07:49:22;12.00;;;7.90;;
46036;SDS011;31769;49.304;8.428;2023-09-08T07:52:23;13.57;;;10.82;;
46036;SDS011;31769;49.304;8.428;2023-09-08T07:55:23;9.93;;;8.40;;
46036;SDS011;31769;49.304;8.428;2023-09-08T07:58:27;8.27;;;6.07;;
46036;SDS011;31769;49.304;8.428;2023-09-08T08:01:27;8.32;;;6.55;;
46036;SDS011;31769;49.304;8.428;2023-09-08T08:04:28;7.47;;;6.35;;
46036;SDS011;31769;49.304;8.428;2023-09-08T08:07:29;7.57;;;6.90;;
46036;SDS011;31769;49.304;8.428;2023-09-08T08:10:30;7.18;;;6.47;;
46036;SDS011;31769;49.304;8.428;2023-09-08T08:13:31;8.90;;;6.65;;
46036;SDS011;31769;49.304;8.428;2023-09-08T08:16:32;6.97;;;6.22;;
46036;SDS011;31769;49.304;8.428;2023-09-08T08:19:32;10.55;;;6.45;;
46036;SDS011;31769;49.304;8.428;2023-09-08T08:22:33;8.07;;;6.38;;
46036;SDS011;31769;49.304;8.428;2023-09-08T08:25:34;19.38;;;13.75;;
46036;SDS011;31769;49.304;8.428;2023-09-08T08:28:35;8.65;;;7.70;;
46036;SDS011;31769;49.304;8.428;2023-09-08T08:31:35;11.27;;;10.10;;
46036;SDS011;31769;49.304;8.428;2023-09-08T08:34:36;8.93;;;8.13;;
46036;SDS011;31769;49.304;8.428;2023-09-08T08:37:39;8.25;;;7.45;;
46036;SDS011;31769;49.304;8.428;2023-09-08T08:40:40;8.52;;;7.78;;
46036;SDS011;31769;49.304;8.428;2023-09-08T08:43:41;10.75;;;9.63;;
46036;SDS011;31769;49.304;8.428;2023-09-08T08:46:44;8.82;;;8.10;;
46036;SDS011;31769;49.304;8.428;2023-09-08T08:49:47;12.32;;;8.90;;
46036;SDS011;31769;49.304;8.428;2023-09-08T08:52:49;9.43;;;7.88;;
46036;SDS011;31769;49.304;8.428;2023-09-08T08:55:50;11.98;;;8.70;;
46036;SDS011;31769;49.304;8.428;2023-09-08T08:58:53;10.48;;;8.50;;
46036;SDS011;31769;49.304;8.428;2023-09-08T09:01:54;10.15;;;6.95;;
46036;SDS011;31769;49.304;8.428;2023-09-08T09:04:57;13.27;;;7.78;;
46036;SDS011;31769;49.304;8.428;2023-09-08T09:07:58;7.15;;;6.55;;
46036;SDS011;31769;49.304;8.428;2023-09-08T09:10:59;8.68;;;6.50;;
46036;SDS011;31769;49.304;8.428;2023-09-08T09:13:59;10.30;;;9.05;;
46036;SDS011;31769;49.304;8.428;2023-09-08T09:17:00;8.73;;;7.95;;
46036;SDS011;31769;49.304;8.428;2023-09-08T09:23:32;7.55;;;6.85;;
46036;SDS011;31769;49.304;8.428;2023-09-08T09:26:34;7.22;;;6.10;;
46036;SDS011;31769;49.304;8.428;2023-09-08T09:29:45;10.70;;;6.32;;
46036;SDS011;31769;49.304;8.428;2023-09-08T09:32:47;8.55;;;6.28;;
46036;SDS011;31769;49.304;8.428;2023-09-08T09:35:50;6.85;;;5.78;;
46036;SDS011;31769;49.304;8.428;2023-09-08T09:38:52;7.40;;;5.80;;
46036;SDS011;31769;49.304;8.428;2023-09-08T09:41:58;9.55;;;5.75;;
46036;SDS011;31769;49.304;8.428;2023-09-08T09:45:00;7.60;;;6.75;;
46036;SDS011;31769;49.304;8.428;2023-09-08T09:48:02;8.95;;;6.93;;
46036;SDS011;31769;49.304;8.428;2023-09-08T09:51:16;8.93;;;6.43;;
46036;SDS011;31769;49.304;8.428;2023-09-08T09:54:18;8.98;;;8.07;;
46036;SDS011;31769;49.304;8.428;2023-09-08T09:57:19;10.25;;;6.55;;
46036;SDS011;31769;49.304;8.428;2023-09-08T10:00:21;7.20;;;5.90;;
46036;SDS011;31769;49.304;8.428;2023-09-08T10:03:22;9.00;;;6.35;;
46036;SDS011;31769;49.304;8.428;2023-09-08T10:06:25;9.15;;;5.82;;
46036;SDS011;31769;49.304;8.428;2023-09-08T10:09:26;6.90;;;6.22;;
46036;SDS011;31769;49.304;8.428;2023-09-08T10:12:26;6.43;;;5.93;;
46036;SDS011;31769;49.304;8.428;2023-09-08T10:15:31;6.25;;;5.63;;
46036;SDS011;31769;49.304;8.428;2023-09-08T10:18:33;6.95;;;6.28;;
46036;SDS011;31769;49.304;8.428;2023-09-08T10:21:42;7.53;;;6.90;;
46036;SDS011;31769;49.304;8.428;2023-09-08T10:24:46;9.05;;;8.18;;
46036;SDS011;31769;49.304;8.428;2023-09-08T10:27:47;7.47;;;5.95;;
46036;SDS011;31769;49.304;8.428;2023-09-08T10:30:48;7.88;;;5.70;;
46036;SDS011;31769;49.304;8.428;2023-09-08T10:33:53;6.10;;;5.60;;
46036;SDS011;31769;49.304;8.428;2023-09-08T10:36:57;10.13;;;5.43;;
46036;SDS011;31769;49.304;8.428;2023-09-08T10:40:40;6.90;;;5.65;;
46036;SDS011;31769;49.304;8.428;2023-09-08T10:43:22;11.35;;;6.07;;
46036;SDS011;31769;49.304;8.428;2023-09-08T10:46:26;6.32;;;5.38;;
46036;SDS011;31769;49.304;8.428;2023-09-08T10:49:27;8.98;;;7.90;;
46036;SDS011;31769;49.304;8.428;2023-09-08T10:52:35;6.38;;;5.55;;
46036;SDS011;31769;49.304;8.428;2023-09-08T10:55:42;7.35;;;5.72;;
46036;SDS011;31769;49.304;8.428;2023-09-08T10:58:51;9.00;;;5.50;;
46036;SDS011;31769;49.304;8.428;2023-09-08T11:01:53;6.32;;;5.72;;
46036;SDS011;31769;49.304;8.428;2023-09-08T11:04:54;9.25;;;5.55;;
46036;SDS011;31769;49.304;8.428;2023-09-08T11:07:55;8.82;;;5.60;;
46036;SDS011;31769;49.304;8.428;2023-09-08T11:10:56;10.40;;;6.22;;
46036;SDS011;31769;49.304;8.428;2023-09-08T11:13:57;6.90;;;5.18;;
46036;SDS011;31769;49.304;8.428;2023-09-08T11:16:57;9.38;;;5.68;;
46036;SDS011;31769;49.304;8.428;2023-09-08T11:19:58;8.68;;;5.82;;
46036;SDS011;31769;49.304;8.428;2023-09-08T11:22:59;7.57;;;5.78;;
46036;SDS011;31769;49.304;8.428;2023-09-08T11:25:59;7.13;;;5.80;;
46036;SDS011;31769;49.304;8.428;2023-09-08T11:29:00;7.32;;;5.90;;
46036;SDS011;31769;49.304;8.428;2023-09-08T11:32:01;6.28;;;5.68;;
46036;SDS011;31769;49.304;8.428;2023-09-08T11:35:08;9.55;;;4.80;;
46036;SDS011;31769;49.304;8.428;2023-09-08T11:41:10;5.07;;;4.68;;
46036;SDS011;31769;49.304;8.428;2023-09-08T11:44:15;6.68;;;4.50;;
46036;SDS011;31769;49.304;8.428;2023-09-08T11:47:17;5.07;;;4.57;;
46036;SDS011;31769;49.304;8.428;2023-09-08T11:50:18;6.85;;;4.53;;
46036;SDS011;31769;49.304;8.428;2023-09-08T11:53:20;5.50;;;4.32;;
46036;SDS011;31769;49.304;8.428;2023-09-08T11:56:21;5.38;;;4.43;;
46036;SDS011;31769;49.304;8.428;2023-09-08T11:59:22;6.28;;;4.15;;
46036;SDS011;31769;49.304;8.428;2023-09-08T12:05:50;7.70;;;4.82;;
46036;SDS011;31769;49.304;8.428;2023-09-08T12:08:52;4.75;;;4.35;;
46036;SDS011;31769;49.304;8.428;2023-09-08T12:11:53;4.10;;;3.70;;
46036;SDS011;31769;49.304;8.428;2023-09-08T12:14:54;6.55;;;4.63;;
46036;SDS011;31769;49.304;8.428;2023-09-08T12:17:54;4.10;;;3.80;;
46036;SDS011;31769;49.304;8.428;2023-09-08T12:21:04;7.78;;;4.63;;
46036;SDS011;31769;49.304;8.428;2023-09-08T12:24:06;10.20;;;3.72;;
46036;SDS011;31769;49.304;8.428;2023-09-08T12:27:06;3.20;;;3.00;;
46036;SDS011;31769;49.304;8.428;2023-09-08T12:30:07;4.13;;;3.15;;
46036;SDS011;31769;49.304;8.428;2023-09-08T12:33:09;4.78;;;2.90;;
46036;SDS011;31769;49.304;8.428;2023-09-08T12:36:15;4.50;;;2.30;;
46036;SDS011;31769;49.304;8.428;2023-09-08T12:39:16;3.92;;;2.40;;
46036;SDS011;31769;49.304;8.428;2023-09-08T12:42:17;2.60;;;2.40;;
46036;SDS011;31769;49.304;8.428;2023-09-08T12:45:20;3.35;;;2.40;;
46036;SDS011;31769;49.304;8.428;2023-09-08T12:48:22;2.53;;;2.08;;
46036;SDS011;31769;49.304;8.428;2023-09-08T12:51:23;5.78;;;3.40;;
46036;SDS011;31769;49.304;8.428;2023-09-08T12:54:24;2.50;;;2.10;;
46036;SDS011;31769;49.304;8.428;2023-09-08T12:57:25;4.95;;;1.92;;
46036;SDS011;31769;49.304;8.428;2023-09-08T13:00:26;5.15;;;2.05;;
46036;SDS011;31769;49.304;8.428;2023-09-08T13:03:27;4.27;;;2.73;;
46036;SDS011;31769;49.304;8.428;2023-09-08T13:06:28;8.90;;;2.33;;
46036;SDS011;31769;49.304;8.428;2023-09-08T13:09:30;5.43;;;2.10;;
46036;SDS011;31769;49.304;8.428;2023-09-08T13:12:31;2.42;;;1.92;;
46036;SDS011;31769;49.304;8.428;2023-09-08T13:15:31;3.78;;;2.20;;
46036;SDS011;31769;49.304;8.428;2023-09-08T13:18:32;2.63;;;2.17;;
46036;SDS011;31769;49.304;8.428;2023-09-08T13:21:37;6.10;;;2.20;;
46036;SDS011;31769;49.304;8.428;2023-09-08T13:24:38;2.80;;;1.77;;
46036;SDS011;31769;49.304;8.428;2023-09-08T13:27:42;3.05;;;2.42;;
46036;SDS011;31769;49.304;8.428;2023-09-08T13:30:42;5.88;;;1.80;;
46036;SDS011;31769;49.304;8.428;2023-09-08T13:33:43;2.65;;;1.48;;
46036;SDS011;31769;49.304;8.428;2023-09-08T13:36:44;5.72;;;2.33;;
46036;SDS011;31769;49.304;8.428;2023-09-08T13:39:44;2.97;;;1.50;;
46036;SDS011;31769;49.304;8.428;2023-09-08T13:42:45;4.50;;;1.60;;
46036;SDS011;31769;49.304;8.428;2023-09-08T13:45:45;3.00;;;1.97;;
46036;SDS011;31769;49.304;8.428;2023-09-08T13:48:46;1.70;;;1.60;;
46036;SDS011;31769;49.304;8.428;2023-09-08T13:51:46;3.00;;;1.60;;
46036;SDS011;31769;49.304;8.428;2023-09-08T13:54:47;4.67;;;1.70;;
46036;SDS011;31769;49.304;8.428;2023-09-08T13:57:48;3.87;;;1.33;;
46036;SDS011;31769;49.304;8.428;2023-09-08T14:00:48;4.90;;;1.40;;
46036;SDS011;31769;49.304;8.428;2023-09-08T14:03:49;3.37;;;1.40;;
46036;SDS011;31769;49.304;8.428;2023-09-08T14:06:51;1.30;;;1.15;;
46036;SDS011;31769;49.304;8.428;2023-09-08T14:09:52;1.60;;;1.33;;
46036;SDS011;31769;49.304;8.428;2023-09-08T14:12:53;2.00;;;1.40;;
46036;SDS011;31769;49.304;8.428;2023-09-08T14:15:53;4.53;;;1.23;;
46036;SDS011;31769;49.304;8.428;2023-09-08T14:18:54;1.30;;;1.20;;
46036;SDS011;31769;49.304;8.428;2023-09-08T14:21:55;2.63;;;1.17;;
46036;SDS011;31769;49.304;8.428;2023-09-08T14:24:55;4.43;;;1.40;;
46036;SDS011;31769;49.304;8.428;2023-09-08T14:27:56;2.07;;;1.30;;
46036;SDS011;31769;49.304;8.428;2023-09-08T14:30:57;1.70;;;1.50;;
46036;SDS011;31769;49.304;8.428;2023-09-08T14:33:57;3.37;;;1.40;;
46036;SDS011;31769;49.304;8.428;2023-09-08T14:36:58;1.50;;;1.40;;
46036;SDS011;31769;49.304;8.428;2023-09-08T14:39:59;2.40;;;1.30;;
46036;SDS011;31769;49.304;8.428;2023-09-08T14:42:59;4.53;;;1.60;;
46036;SDS011;31769;49.304;8.428;2023-09-08T14:46:00;4.23;;;1.60;;
46036;SDS011;31769;49.304;8.428;2023-09-08T14:49:03;2.15;;;1.70;;
46036;SDS011;31769;49.304;8.428;2023-09-08T14:52:03;1.90;;;1.20;;
46036;SDS011;31769;49.304;8.428;2023-09-08T14:55:04;2.27;;;1.50;;
46036;SDS011;31769;49.304;8.428;2023-09-08T14:58:05;2.03;;;1.60;;
46036;SDS011;31769;49.304;8.428;2023-09-08T15:01:06;2.53;;;1.60;;
46036;SDS011;31769;49.304;8.428;2023-09-08T15:04:08;4.97;;;4.30;;
46036;SDS011;31769;49.304;8.428;2023-09-08T15:07:09;3.43;;;2.10;;
46036;SDS011;31769;49.304;8.428;2023-09-08T15:10:09;2.03;;;1.70;;
46036;SDS011;31769;49.304;8.428;2023-09-08T15:13:10;3.03;;;1.40;;
46036;SDS011;31769;49.304;8.428;2023-09-08T15:16:11;5.27;;;3.20;;
46036;SDS011;31769;49.304;8.428;2023-09-08T15:19:11;5.57;;;1.90;;
46036;SDS011;31769;49.304;8.428;2023-09-08T15:22:12;5.53;;;1.90;;
46036;SDS011;31769;49.304;8.428;2023-09-08T15:25:13;5.50;;;1.47;;
46036;SDS011;31769;49.304;8.428;2023-09-08T15:28:13;2.43;;;1.93;;
46036;SDS011;31769;49.304;8.428;2023-09-08T15:31:17;3.97;;;1.53;;
46036;SDS011;31769;49.304;8.428;2023-09-08T15:34:18;4.30;;;1.60;;
46036;SDS011;31769;49.304;8.428;2023-09-08T15:37:19;5.53;;;1.80;;
46036;SDS011;31769;49.304;8.428;2023-09-08T15:40:20;4.82;;;1.73;;
46036;SDS011;31769;49.304;8.428;2023-09-08T15:43:20;4.70;;;1.67;;
46036;SDS011;31769;49.304;8.428;2023-09-08T15:46:21;2.70;;;2.10;;
46036;SDS011;31769;49.304;8.428;2023-09-08T15:49:21;4.23;;;1.50;;
46036;SDS011;31769;49.304;8.428;2023-09-08T15:52:22;3.17;;;1.90;;
46036;SDS011;31769;49.304;8.428;2023-09-08T15:55:23;2.53;;;1.53;;
46036;SDS011;31769;49.304;8.428;2023-09-08T15:58:23;5.07;;;1.80;;
46036;SDS011;31769;49.304;8.428;2023-09-08T16:01:24;1.95;;;1.58;;
46036;SDS011;31769;49.304;8.428;2023-09-08T16:04:25;5.53;;;1.88;;
46036;SDS011;31769;49.304;8.428;2023-09-08T16:07:26;3.83;;;1.90;;
46036;SDS011;31769;49.304;8.428;2023-09-08T16:10:27;2.97;;;1.60;;
46036;SDS011;31769;49.304;8.428;2023-09-08T16:13:29;5.65;;;3.05;;
46036;SDS011;31769;49.304;8.428;2023-09-08T16:16:31;1.98;;;1.80;;
46036;SDS011;31769;49.304;8.428;2023-09-08T16:19:33;4.55;;;1.90;;
46036;SDS011;31769;49.304;8.428;2023-09-08T16:22:34;2.20;;;1.90;;
46036;SDS011;31769;49.304;8.428;2023-09-08T16:25:34;2.92;;;2.03;;
46036;SDS011;31769;49.304;8.428;2023-09-08T16:28:35;3.40;;;2.03;;
46036;SDS011;31769;49.304;8.428;2023-09-08T16:31:36;3.75;;;1.95;;
46036;SDS011;31769;49.304;8.428;2023-09-08T16:34:36;1.88;;;1.70;;
46036;SDS011;31769;49.304;8.428;2023-09-08T16:37:37;2.60;;;1.90;;
46036;SDS011;31769;49.304;8.428;2023-09-08T16:40:38;2.22;;;1.83;;
46036;SDS011;31769;49.304;8.428;2023-09-08T16:43:39;7.13;;;2.30;;
46036;SDS011;31769;49.304;8.428;2023-09-08T16:46:39;2.55;;;2.33;;
46036;SDS011;31769;49.304;8.428;2023-09-08T16:49:40;4.40;;;1.80;;
46036;SDS011;31769;49.304;8.428;2023-09-08T16:52:41;2.85;;;2.03;;
46036;SDS011;31769;49.304;8.428;2023-09-08T16:55:41;1.88;;;1.67;;
46036;SDS011;31769;49.304;8.428;2023-09-08T16:58:42;2.30;;;2.03;;
46036;SDS011;31769;49.304;8.428;2023-09-08T17:01:43;2.00;;;1.90;;
46036;SDS011;31769;49.304;8.428;2023-09-08T17:04:43;3.42;;;1.80;;
46036;SDS011;31769;49.304;8.428;2023-09-08T17:07:45;5.35;;;2.08;;
46036;SDS011;31769;49.304;8.428;2023-09-08T17:10:46;5.68;;;1.90;;
46036;SDS011;31769;49.304;8.428;2023-09-08T17:13:48;6.13;;;2.50;;
46036;SDS011;31769;49.304;8.428;2023-09-08T17:16:48;3.00;;;2.33;;
46036;SDS011;31769;49.304;8.428;2023-09-08T17:19:49;6.72;;;2.53;;
46036;SDS011;31769;49.304;8.428;2023-09-08T17:22:50;6.25;;;2.63;;
46036;SDS011;31769;49.304;8.428;2023-09-08T17:25:51;3.40;;;2.40;;
46036;SDS011;31769;49.304;8.428;2023-09-08T17:28:51;4.57;;;2.83;;
46036;SDS011;31769;49.304;8.428;2023-09-08T17:31:52;3.97;;;2.60;;
46036;SDS011;31769;49.304;8.428;2023-09-08T17:34:54;4.90;;;2.65;;
46036;SDS011;31769;49.304;8.428;2023-09-08T17:37:55;6.35;;;2.90;;
46036;SDS011;31769;49.304;8.428;2023-09-08T17:40:55;3.10;;;2.72;;
46036;SDS011;31769;49.304;8.428;2023-09-08T17:43:56;5.65;;;3.15;;
46036;SDS011;31769;49.304;8.428;2023-09-08T17:46:56;4.28;;;3.58;;
46036;SDS011;31769;49.304;8.428;2023-09-08T17:49:59;5.88;;;3.72;;
46036;SDS011;31769;49.304;8.428;2023-09-08T17:53:00;6.82;;;3.63;;
46036;SDS011;31769;49.304;8.428;2023-09-08T17:56:01;16.90;;;14.30;;
46036;SDS011;31769;49.304;8.428;2023-09-08T17:59:02;15.02;;;13.43;;
46036;SDS011;31769;49.304;8.428;2023-09-08T18:02:02;33.70;;;30.13;;
46036;SDS011;31769;49.304;8.428;2023-09-08T18:05:04;57.33;;;44.70;;
46036;SDS011;31769;49.304;8.428;2023-09-08T18:08:06;27.00;;;22.27;;
46036;SDS011;31769;49.304;8.428;2023-09-08T18:11:08;13.65;;;8.30;;
46036;SDS011;31769;49.304;8.428;2023-09-08T18:14:09;31.05;;;18.77;;
46036;SDS011;31769;49.304;8.428;2023-09-08T18:17:10;11.48;;;7.70;;
46036;SDS011;31769;49.304;8.428;2023-09-08T18:20:11;19.15;;;12.77;;